createdAt,value
2018-09-11T00:00:05.130Z,17.50
2018-09-11T00:02:33.919Z,17.50
2018-09-11T00:05:02.869Z,17.40
2018-09-11T00:07:31.649Z,17.50
2018-09-11T00:10:00.433Z,17.30
2018-09-11T00:12:29.619Z,17.30
2018-09-11T00:14:58.361Z,17.40
2018-09-11T00:17:27.136Z,17.50
2018-09-11T00:19:55.975Z,17.40
2018-09-11T00:22:24.783Z,17.40
2018-09-11T00:24:53.627Z,17.50
2018-09-11T00:27:22.420Z,17.40
2018-09-11T00:29:51.222Z,17.40
2018-09-11T00:32:20.176Z,17.50
2018-09-11T00:34:48.990Z,17.40
2018-09-11T00:37:17.831Z,17.40
2018-09-11T00:39:46.614Z,17.30
2018-09-11T00:42:15.421Z,17.20
2018-09-11T00:44:44.635Z,17.10
2018-09-11T00:47:13.388Z,17.30
2018-09-11T00:49:42.151Z,17.30
2018-09-11T00:52:10.960Z,17.20
2018-09-11T00:54:39.789Z,17.20
2018-09-11T00:57:08.576Z,17.00
2018-09-11T00:59:37.325Z,16.90
2018-09-11T01:02:06.182Z,16.80
2018-09-11T01:04:34.975Z,16.80
2018-09-11T01:07:03.770Z,16.80
2018-09-11T01:09:32.524Z,16.80
2018-09-11T01:12:01.332Z,16.90
2018-09-11T01:14:30.171Z,17.00
2018-09-11T01:16:58.950Z,16.90
2018-09-11T01:19:27.730Z,17.00
2018-09-11T01:21:56.535Z,16.90
2018-09-11T01:24:25.408Z,16.90
2018-09-11T01:26:54.232Z,16.90
2018-09-11T01:29:23.037Z,16.90
2018-09-11T01:31:51.840Z,16.90
2018-09-11T01:34:20.638Z,16.80
2018-09-11T01:36:49.382Z,16.80
2018-09-11T01:39:18.223Z,16.80
2018-09-11T01:41:48.810Z,16.90
2018-09-11T01:44:17.652Z,16.90
2018-09-11T01:46:47.697Z,16.80
2018-09-11T01:49:18.510Z,16.60
2018-09-11T01:51:47.365Z,16.60
2018-09-11T01:54:16.093Z,16.60
2018-09-11T01:56:44.902Z,16.80
2018-09-11T01:59:13.700Z,16.70
2018-09-11T02:01:42.538Z,16.60
2018-09-11T02:04:11.333Z,16.70
2018-09-11T02:06:40.084Z,16.50
2018-09-11T02:09:11.132Z,16.50
2018-09-11T02:11:39.903Z,16.60
2018-09-11T02:14:08.732Z,16.70
2018-09-11T02:16:37.554Z,16.70
2018-09-11T02:19:06.383Z,16.80
2018-09-11T02:21:35.166Z,16.90
2018-09-11T02:24:03.973Z,16.90
2018-09-11T02:26:32.774Z,16.80
2018-09-11T02:29:01.584Z,16.70
2018-09-11T02:31:30.348Z,16.70
2018-09-11T02:33:59.319Z,16.60
2018-09-11T02:36:28.113Z,16.50
2018-09-11T02:38:57.069Z,16.60
2018-09-11T02:41:25.926Z,16.50
2018-09-11T02:43:54.719Z,16.40
2018-09-11T02:46:23.517Z,16.40
2018-09-11T02:48:52.310Z,16.50
2018-09-11T02:51:21.063Z,16.60
2018-09-11T02:53:49.865Z,16.60
2018-09-11T02:56:18.634Z,16.50
2018-09-11T02:58:47.393Z,16.40
2018-09-11T03:01:16.142Z,16.50
2018-09-11T03:03:45.273Z,16.40
2018-09-11T03:06:14.144Z,16.40
2018-09-11T03:08:43.080Z,16.40
2018-09-11T03:11:11.940Z,16.40
2018-09-11T03:13:40.691Z,16.30
2018-09-11T03:16:09.437Z,16.20
2018-09-11T03:18:38.250Z,16.30
2018-09-11T03:21:07.094Z,16.20
2018-09-11T03:23:36.077Z,16.10
2018-09-11T03:26:05.198Z,16.00
2018-09-11T03:28:34.200Z,16.00
2018-09-11T03:31:03.024Z,16.00
2018-09-11T03:33:32.063Z,15.90
2018-09-11T03:36:00.873Z,15.90
2018-09-11T03:38:29.649Z,15.90
2018-09-11T03:40:58.476Z,15.80
2018-09-11T03:43:27.327Z,15.70
2018-09-11T03:45:56.126Z,15.80
2018-09-11T03:48:24.930Z,15.80
2018-09-11T03:50:53.724Z,15.90
2018-09-11T03:53:22.519Z,15.80
2018-09-11T03:55:51.310Z,15.80
2018-09-11T03:58:20.189Z,15.90
2018-09-11T04:00:49.264Z,15.90
2018-09-11T04:03:18.403Z,16.00
2018-09-11T04:05:47.214Z,16.00
2018-09-11T04:08:16.289Z,16.10
2018-09-11T04:10:45.366Z,16.10
2018-09-11T04:13:14.146Z,16.00
2018-09-11T04:15:42.933Z,16.00
2018-09-11T04:18:11.750Z,16.00
2018-09-11T04:20:40.647Z,16.00
2018-09-11T04:23:09.469Z,16.00
2018-09-11T04:25:38.365Z,16.10
2018-09-11T04:28:07.884Z,16.00
2018-09-11T04:30:36.673Z,16.20
2018-09-11T04:33:07.459Z,16.20
2018-09-11T04:35:36.215Z,16.10
2018-09-11T04:38:05.481Z,16.20
2018-09-11T04:40:34.251Z,16.10
2018-09-11T04:43:03.070Z,16.10
2018-09-11T04:45:31.921Z,16.20
2018-09-11T04:48:00.704Z,16.30
2018-09-11T04:50:29.526Z,16.30
2018-09-11T04:52:58.394Z,16.30
2018-09-11T04:55:27.196Z,16.20
2018-09-11T04:57:56.466Z,16.30
2018-09-11T05:00:25.225Z,16.30
2018-09-11T05:02:54.014Z,16.20
2018-09-11T05:05:22.793Z,16.30
2018-09-11T05:07:51.658Z,16.50
2018-09-11T05:10:20.496Z,16.70
2018-09-11T05:12:49.307Z,16.60
2018-09-11T05:15:18.069Z,16.40
2018-09-11T05:17:47.298Z,16.50
2018-09-11T05:20:16.066Z,16.60
2018-09-11T05:22:44.887Z,16.60
2018-09-11T05:25:13.669Z,16.60
2018-09-11T05:27:42.443Z,16.50
2018-09-11T05:30:11.251Z,16.40
2018-09-11T05:32:40.061Z,16.60
2018-09-11T05:35:08.896Z,16.50
2018-09-11T05:37:37.670Z,16.30
2018-09-11T05:40:06.469Z,16.50
2018-09-11T05:42:35.291Z,16.80
2018-09-11T05:45:04.116Z,17.00
2018-09-11T05:47:33.699Z,17.10
2018-09-11T05:50:09.132Z,17.30
2018-09-11T05:52:38.686Z,17.30
2018-09-11T05:55:07.793Z,17.30
2018-09-11T05:57:36.582Z,17.50
2018-09-11T06:00:06.368Z,17.70
2018-09-11T06:02:35.214Z,17.60
2018-09-11T06:05:04.371Z,17.40
2018-09-11T06:07:33.140Z,17.60
2018-09-11T06:10:01.872Z,17.60
2018-09-11T06:12:30.713Z,17.60
2018-09-11T06:14:59.550Z,17.30
2018-09-11T06:17:28.314Z,17.50
2018-09-11T06:19:57.125Z,17.70
2018-09-11T06:22:25.890Z,17.60
2018-09-11T06:24:54.729Z,17.60
2018-09-11T06:27:23.514Z,17.50
2018-09-11T06:29:58.730Z,17.40
2018-09-11T06:32:27.517Z,17.60
2018-09-11T06:34:56.297Z,17.80
2018-09-11T06:37:25.068Z,18.00
2018-09-11T06:39:53.903Z,18.00
2018-09-11T06:42:22.650Z,17.80
2018-09-11T06:44:51.538Z,17.80
2018-09-11T06:47:20.244Z,17.80
2018-09-11T06:49:49.779Z,18.00
2018-09-11T06:52:18.554Z,18.10
2018-09-11T06:54:47.436Z,18.20
2018-09-11T06:57:16.249Z,18.00
2018-09-11T06:59:45.036Z,18.00
2018-09-11T07:02:13.837Z,18.00
2018-09-11T07:04:42.605Z,18.10
2018-09-11T07:07:11.397Z,18.10
2018-09-11T07:09:40.321Z,18.10
2018-09-11T07:12:09.088Z,18.30
2018-09-11T07:14:37.893Z,18.70
2018-09-11T07:17:06.669Z,18.90
2018-09-11T07:19:35.564Z,19.10
2018-09-11T07:22:04.403Z,19.60
2018-09-11T07:24:33.243Z,19.50
2018-09-11T07:27:02.052Z,19.90
2018-09-11T07:29:30.900Z,20.20
2018-09-11T07:31:59.680Z,20.50
2018-09-11T07:34:31.325Z,20.50
2018-09-11T07:37:00.134Z,20.40
2018-09-11T07:39:28.940Z,20.40
2018-09-11T07:41:57.702Z,20.10
2018-09-11T07:44:26.503Z,20.30
2018-09-11T07:46:55.300Z,20.30
2018-09-11T07:49:24.115Z,20.20
2018-09-11T07:51:52.964Z,20.30
2018-09-11T07:54:21.737Z,20.20
2018-09-11T07:56:50.524Z,20.20
2018-09-11T07:59:19.282Z,20.20
2018-09-11T08:01:48.045Z,20.10
2018-09-11T08:04:16.830Z,20.20
2018-09-11T08:06:45.645Z,20.10
2018-09-11T08:09:14.410Z,20.10
2018-09-11T08:11:43.148Z,20.20
2018-09-11T08:14:11.942Z,20.10
2018-09-11T08:16:40.694Z,20.10
2018-09-11T08:19:09.537Z,20.10
2018-09-11T08:21:38.336Z,19.90
2018-09-11T08:24:07.133Z,19.90
2018-09-11T08:26:35.927Z,19.90
2018-09-11T08:29:04.749Z,20.00
2018-09-11T08:31:33.542Z,20.20
2018-09-11T08:34:02.428Z,20.30
2018-09-11T08:36:31.272Z,20.60
2018-09-11T08:39:06.428Z,20.60
2018-09-11T08:41:35.176Z,20.40
2018-09-11T08:44:04.027Z,20.60
2018-09-11T08:46:32.888Z,20.40
2018-09-11T08:49:01.784Z,20.50
2018-09-11T08:51:30.595Z,20.90
2018-09-11T08:53:59.488Z,21.40
2018-09-11T08:56:28.282Z,21.60
2018-09-11T08:58:57.053Z,21.80
2018-09-11T09:01:25.851Z,22.00
2018-09-11T09:03:54.609Z,22.00
2018-09-11T09:06:23.423Z,22.10
2018-09-11T09:08:52.287Z,22.50
2018-09-11T09:11:21.040Z,23.00
2018-09-11T09:13:49.925Z,23.50
2018-09-11T09:16:19.031Z,23.40
2018-09-11T09:18:48.017Z,23.20
2018-09-11T09:21:16.816Z,23.20
2018-09-11T09:23:45.581Z,23.00
2018-09-11T09:26:14.433Z,23.40
2018-09-11T09:28:43.221Z,23.40
2018-09-11T09:31:12.023Z,23.20
2018-09-11T09:33:40.787Z,23.40
2018-09-11T09:36:09.637Z,23.80
2018-09-11T09:38:38.512Z,24.00
2018-09-11T09:41:07.268Z,24.40
2018-09-11T09:43:36.485Z,24.30
2018-09-11T09:46:05.274Z,24.20
2018-09-11T09:48:34.044Z,23.70
2018-09-11T09:51:02.831Z,23.60
2018-09-11T09:53:31.732Z,24.00
2018-09-11T09:56:00.610Z,24.40
2018-09-11T09:58:29.788Z,24.40
2018-09-11T10:01:03.850Z,24.20
2018-09-11T10:03:32.588Z,24.70
2018-09-11T10:06:01.321Z,25.10
2018-09-11T10:08:30.138Z,24.80
2018-09-11T10:10:58.881Z,24.80
2018-09-11T10:13:27.679Z,24.80
2018-09-11T10:15:56.514Z,25.20
2018-09-11T10:18:25.356Z,25.60
2018-09-11T10:20:54.163Z,25.80
2018-09-11T10:23:22.921Z,26.00
2018-09-11T10:25:51.743Z,26.20
2018-09-11T10:28:20.493Z,26.50
2018-09-11T10:30:49.242Z,26.50
2018-09-11T10:33:18.021Z,26.60
2018-09-11T10:35:46.825Z,26.30
2018-09-11T10:38:15.650Z,26.50
2018-09-11T10:40:44.441Z,25.70
2018-09-11T10:43:13.211Z,25.70
2018-09-11T10:45:41.978Z,25.80
2018-09-11T10:48:10.982Z,26.10
2018-09-11T10:50:39.740Z,26.40
2018-09-11T10:53:08.525Z,26.80
2018-09-11T10:55:37.338Z,26.50
2018-09-11T10:58:06.405Z,26.60
2018-09-11T11:00:35.201Z,26.50
2018-09-11T11:03:04.089Z,26.00
2018-09-11T11:05:32.876Z,26.00
2018-09-11T11:08:01.743Z,26.20
2018-09-11T11:10:30.813Z,26.30
2018-09-11T11:12:59.704Z,26.30
2018-09-11T11:15:28.448Z,26.50
2018-09-11T11:17:57.199Z,26.50
2018-09-11T11:20:26.098Z,26.60
2018-09-11T11:22:54.905Z,26.60
2018-09-11T11:25:23.670Z,26.70
2018-09-11T11:27:52.539Z,26.70
2018-09-11T11:30:21.392Z,26.70
2018-09-11T11:32:50.217Z,26.90
2018-09-11T11:35:18.953Z,27.10
2018-09-11T11:37:47.882Z,26.70
2018-09-11T11:40:16.690Z,26.40
2018-09-11T11:42:45.604Z,26.20
2018-09-11T11:45:14.399Z,26.40
2018-09-11T11:47:43.192Z,26.30
2018-09-11T11:50:11.986Z,26.40
2018-09-11T11:52:40.820Z,26.70
2018-09-11T11:55:09.947Z,27.00
2018-09-11T11:57:38.663Z,26.90
2018-09-11T12:00:07.454Z,27.20
2018-09-11T12:02:36.260Z,27.70
2018-09-11T12:05:05.139Z,28.20
2018-09-11T12:07:33.933Z,27.70
2018-09-11T12:10:02.739Z,27.80
2018-09-11T12:12:31.484Z,27.90
2018-09-11T12:15:00.242Z,27.90
2018-09-11T12:17:28.984Z,28.00
2018-09-11T12:19:58.168Z,27.70
2018-09-11T12:22:27.016Z,27.10
2018-09-11T12:24:55.816Z,27.00
2018-09-11T12:27:24.660Z,27.20
2018-09-11T12:29:53.505Z,27.40
2018-09-11T12:32:22.280Z,27.40
2018-09-11T12:34:51.077Z,27.20
2018-09-11T12:37:23.162Z,27.20
2018-09-11T12:39:54.504Z,26.90
2018-09-11T12:42:26.921Z,26.60
2018-09-11T12:45:26.343Z,26.50
2018-09-11T12:47:59.442Z,26.30
2018-09-11T12:50:31.628Z,26.30
2018-09-11T12:53:05.688Z,26.20
2018-09-11T12:55:37.100Z,26.20
2018-09-11T12:58:08.734Z,26.00
2018-09-11T13:00:42.369Z,25.90
2018-09-11T13:03:13.806Z,26.00
2018-09-11T13:05:45.455Z,25.70
2018-09-11T13:08:16.786Z,25.70
2018-09-11T13:10:48.295Z,25.90
2018-09-11T13:13:19.673Z,25.90
2018-09-11T13:15:51.228Z,25.90
2018-09-11T13:18:22.492Z,26.00
2018-09-11T13:20:53.881Z,26.20
2018-09-11T13:23:25.261Z,26.50
2018-09-11T13:25:57.041Z,26.70
2018-09-11T13:28:28.384Z,26.50
2018-09-11T13:31:00.126Z,26.90
2018-09-11T13:33:31.417Z,26.70
2018-09-11T13:36:02.641Z,26.10
2018-09-11T13:38:33.906Z,26.30
2018-09-11T13:41:05.320Z,26.40
2018-09-11T13:46:43.131Z,26.50
2018-09-11T13:49:17.509Z,26.50
2018-09-11T13:51:48.904Z,26.50
2018-09-11T13:54:39.859Z,26.50
2018-09-11T13:57:22.085Z,26.70
2018-09-11T13:59:57.523Z,26.60
2018-09-11T14:02:28.973Z,26.30
2018-09-11T14:05:00.988Z,26.30
2018-09-11T14:07:32.796Z,26.10
2018-09-11T14:10:04.338Z,26.10
2018-09-11T14:12:35.907Z,26.20
2018-09-11T14:15:07.769Z,26.40
2018-09-11T14:17:40.027Z,26.50
2018-09-11T14:20:11.147Z,26.30
2018-09-11T14:22:42.568Z,26.40
2018-09-11T14:25:13.939Z,26.30
2018-09-11T14:27:45.828Z,26.30
2018-09-11T14:30:19.276Z,26.40
2018-09-11T14:32:50.740Z,26.30
2018-09-11T14:35:22.445Z,26.10
2018-09-11T14:38:13.156Z,26.00
2018-09-11T14:41:06.880Z,26.00
2018-09-11T14:43:38.636Z,25.90
2018-09-11T14:46:10.337Z,25.80
2018-09-11T14:48:42.029Z,25.80
2018-09-11T14:51:13.621Z,25.70
2018-09-11T14:54:04.217Z,25.60
2018-09-11T14:56:37.813Z,25.60
2018-09-11T14:59:10.431Z,25.60
2018-09-11T15:01:42.441Z,25.60
2018-09-11T15:04:13.968Z,25.60
2018-09-11T15:06:46.740Z,25.60
2018-09-11T15:09:18.217Z,25.50
2018-09-11T15:11:50.197Z,25.50
2018-09-11T15:14:21.951Z,25.60
2018-09-11T15:16:55.162Z,25.40
2018-09-11T15:19:27.011Z,25.40
2018-09-11T15:21:59.838Z,25.50
2018-09-11T15:24:31.315Z,25.50
2018-09-11T15:27:04.012Z,25.40
2018-09-11T15:29:35.433Z,25.50
2018-09-11T15:32:07.268Z,25.50
2018-09-11T15:34:38.917Z,25.40
2018-09-11T15:37:10.592Z,25.40
2018-09-11T15:39:42.451Z,25.40
2018-09-11T15:42:14.037Z,25.40
2018-09-11T15:44:51.964Z,25.40
2018-09-11T15:47:28.450Z,25.30
2018-09-11T15:50:06.841Z,25.20
2018-09-11T15:52:38.225Z,25.10
2018-09-11T15:55:12.564Z,25.00
2018-09-11T15:57:46.479Z,25.00
2018-09-11T16:00:24.687Z,25.00
2018-09-11T16:03:00.150Z,25.10
2018-09-11T16:05:42.584Z,25.00
2018-09-11T16:08:23.139Z,25.00
2018-09-11T16:10:58.430Z,25.00
2018-09-11T16:13:36.955Z,24.90
2018-09-11T16:16:08.709Z,25.00
2018-09-11T16:18:40.345Z,25.00
2018-09-11T16:21:11.693Z,25.10
2018-09-11T16:23:50.360Z,25.00
2018-09-11T16:26:22.181Z,25.10
2018-09-11T16:29:04.562Z,25.10
2018-09-11T16:31:42.479Z,25.20
2018-09-11T16:34:14.551Z,25.10
2018-09-11T16:37:02.406Z,25.10
2018-09-11T16:39:31.234Z,25.10
2018-09-11T16:42:00.790Z,25.00
2018-09-11T16:44:29.569Z,25.00
2018-09-11T16:46:58.343Z,25.00
2018-09-11T16:49:29.814Z,24.90
2018-09-11T16:51:58.702Z,24.90
2018-09-11T16:54:27.495Z,24.90
2018-09-11T16:56:56.600Z,24.80
2018-09-11T16:59:25.343Z,24.80
2018-09-11T17:01:54.214Z,24.70
2018-09-11T17:04:23.064Z,24.70
2018-09-11T17:06:52.074Z,24.70
2018-09-11T17:09:21.488Z,24.60
2018-09-11T17:11:50.247Z,24.70
2018-09-11T17:14:19.013Z,24.70
2018-09-11T17:16:48.066Z,24.50
2018-09-11T17:19:17.268Z,24.50
2018-09-11T17:21:46.058Z,24.50
2018-09-11T17:24:14.874Z,24.50
2018-09-11T17:26:43.680Z,24.50
2018-09-11T17:29:12.914Z,24.40
2018-09-11T17:31:42.345Z,24.40
2018-09-11T17:34:14.478Z,24.40
2018-09-11T17:36:43.749Z,24.30
2018-09-11T17:39:13.812Z,24.30
2018-09-11T17:41:44.127Z,24.30
2018-09-11T17:44:12.919Z,24.30
2018-09-11T17:46:41.675Z,24.20
2018-09-11T17:49:10.536Z,24.20
2018-09-11T17:51:39.271Z,24.20
2018-09-11T17:54:08.142Z,24.20
2018-09-11T17:56:40.632Z,24.20
2018-09-11T17:59:10.561Z,24.20
2018-09-11T18:01:40.613Z,24.10
2018-09-11T18:04:09.420Z,24.10
2018-09-11T18:06:38.254Z,24.10
2018-09-11T18:09:07.931Z,24.10
2018-09-11T18:11:36.666Z,23.90
2018-09-11T18:14:05.632Z,24.00
2018-09-11T18:16:34.414Z,23.90
2018-09-11T18:19:03.330Z,23.80
2018-09-11T18:21:32.120Z,23.90
2018-09-11T18:24:00.917Z,23.90
2018-09-11T18:26:29.660Z,23.90
2018-09-11T18:28:58.415Z,23.90
2018-09-11T18:31:27.165Z,23.80
2018-09-11T18:33:55.952Z,23.80
2018-09-11T18:36:24.773Z,23.80
2018-09-11T18:38:53.535Z,23.80
2018-09-11T18:41:22.374Z,23.80
2018-09-11T18:43:51.390Z,23.80
2018-09-11T18:46:20.173Z,23.80
2018-09-11T18:48:48.971Z,23.70
2018-09-11T18:51:17.819Z,23.70
2018-09-11T18:53:46.636Z,23.60
2018-09-11T18:56:15.463Z,23.70
2018-09-11T18:58:45.112Z,23.70
2018-09-11T19:01:13.918Z,23.70
2018-09-11T19:03:42.791Z,23.70
2018-09-11T19:06:11.820Z,23.60
2018-09-11T19:08:41.449Z,23.60
2018-09-11T19:11:10.792Z,23.70
2018-09-11T19:13:39.792Z,23.60
2018-09-11T19:16:08.940Z,23.50
2018-09-11T19:18:38.177Z,23.40
2018-09-11T19:21:07.747Z,23.30
2018-09-11T19:23:37.068Z,23.30
2018-09-11T19:26:06.759Z,23.20
2018-09-11T19:28:36.096Z,23.10
2018-09-11T19:31:05.420Z,22.90
2018-09-11T19:33:34.314Z,22.90
2018-09-11T19:36:03.154Z,22.90
2018-09-11T19:38:31.978Z,22.90
2018-09-11T19:41:00.932Z,23.00
2018-09-11T19:43:31.658Z,23.10
2018-09-11T19:46:00.442Z,23.20
2018-09-11T19:48:29.262Z,23.20
2018-09-11T19:50:58.043Z,23.30
2018-09-11T19:53:26.844Z,23.30
2018-09-11T19:55:55.619Z,23.30
2018-09-11T19:58:24.371Z,23.30
2018-09-11T20:00:53.140Z,23.30
2018-09-11T20:03:24.917Z,23.40
2018-09-11T20:05:53.879Z,23.40
2018-09-11T20:08:28.885Z,23.40
2018-09-11T20:10:59.089Z,23.40
2018-09-11T20:13:29.506Z,23.50
2018-09-11T20:16:00.535Z,23.40
2018-09-11T20:18:29.669Z,23.50
2018-09-11T20:20:58.676Z,23.50
2018-09-11T20:23:27.483Z,23.50
2018-09-11T20:25:56.252Z,23.40
2018-09-11T20:28:25.135Z,23.50
2018-09-11T20:30:53.942Z,23.50
2018-09-11T20:33:23.048Z,23.40
2018-09-11T20:35:51.837Z,23.40
2018-09-11T20:38:21.529Z,23.40
2018-09-11T20:40:50.313Z,23.40
2018-09-11T20:43:19.053Z,23.30
2018-09-11T20:45:47.821Z,23.20
2018-09-11T20:48:16.582Z,23.00
2018-09-11T20:50:45.371Z,23.00
2018-09-11T20:53:14.141Z,22.80
2018-09-11T20:55:43.027Z,22.80
2018-09-11T20:58:11.837Z,22.90
2018-09-11T21:00:40.677Z,22.90
2018-09-11T21:03:09.457Z,22.90
2018-09-11T21:05:38.223Z,22.90
2018-09-11T21:08:07.099Z,22.90
2018-09-11T21:10:35.859Z,22.90
2018-09-11T21:13:04.774Z,22.80
2018-09-11T21:15:33.613Z,22.90
2018-09-11T21:18:02.546Z,22.90
2018-09-11T21:20:31.577Z,23.00
2018-09-11T21:23:00.335Z,22.80
2018-09-11T21:25:29.102Z,22.80
2018-09-11T21:27:57.896Z,22.90
2018-09-11T21:30:26.666Z,22.90
2018-09-11T21:32:55.433Z,22.80
2018-09-11T21:35:24.203Z,22.80
2018-09-11T21:37:53.010Z,22.80
2018-09-11T21:40:21.994Z,22.80
2018-09-11T21:42:50.729Z,22.70
2018-09-11T21:45:19.502Z,22.70
2018-09-11T21:47:48.288Z,22.70
2018-09-11T21:50:17.058Z,22.60
2018-09-11T21:52:45.857Z,22.60
2018-09-11T21:55:14.650Z,22.50
2018-09-11T21:57:43.488Z,22.50
2018-09-11T22:00:13.352Z,22.40
2018-09-11T22:02:42.132Z,22.30
2018-09-11T22:05:11.394Z,22.30
2018-09-11T22:07:40.128Z,22.30
2018-09-11T22:10:10.503Z,22.40
2018-09-11T22:12:39.301Z,22.40
2018-09-11T22:15:09.230Z,22.40
2018-09-11T22:17:38.010Z,22.40
2018-09-11T22:20:07.433Z,22.40
2018-09-11T22:22:36.249Z,22.30
2018-09-11T22:25:05.465Z,22.20
2018-09-11T22:27:34.263Z,22.20
2018-09-11T22:30:03.129Z,22.10
2018-09-11T22:32:31.882Z,22.10
2018-09-11T22:35:00.693Z,22.10
2018-09-11T22:37:29.449Z,21.90
2018-09-11T22:39:58.228Z,21.90
2018-09-11T22:42:26.978Z,21.90
2018-09-11T22:44:55.760Z,21.90
2018-09-11T22:47:24.526Z,21.90
2018-09-11T22:49:53.353Z,21.90
2018-09-11T22:52:22.114Z,21.80
2018-09-11T22:54:50.956Z,21.70
2018-09-11T22:57:19.773Z,21.70
2018-09-11T22:59:48.538Z,21.70
2018-09-11T23:02:17.306Z,21.70
2018-09-11T23:04:46.046Z,21.60
2018-09-11T23:07:14.961Z,21.50
2018-09-11T23:09:43.777Z,21.40
2018-09-11T23:12:12.559Z,21.40
2018-09-11T23:14:41.344Z,21.40
2018-09-11T23:17:10.383Z,21.30
2018-09-11T23:19:39.146Z,21.40
2018-09-11T23:22:07.916Z,21.30
2018-09-11T23:24:36.717Z,21.20
2018-09-11T23:27:05.553Z,21.10
2018-09-11T23:29:34.308Z,21.10
2018-09-11T23:32:03.065Z,21.10
2018-09-11T23:34:31.876Z,21.20
2018-09-11T23:37:00.689Z,21.20
2018-09-11T23:39:29.473Z,21.30
2018-09-11T23:41:58.233Z,21.30
2018-09-11T23:44:27.148Z,21.30
2018-09-11T23:46:55.937Z,21.30
2018-09-11T23:49:24.706Z,21.30
2018-09-11T23:51:53.532Z,21.30
2018-09-11T23:54:22.285Z,21.10
2018-09-11T23:56:51.165Z,21.10
2018-09-11T23:59:19.960Z,21.00
